Open Full Screen Window  High Contrast Mode
Wind Gusting 00 knots
05
November 29, 2014 4:23 AM EST
Weather Information
Wind Direction
  200 °
Wind Speed
  05 kt (6 mph)
Wind Gust
  00 kt (0 mph)
Altimeter
30.05 in
Visibility
10 SM
Temperature
03° C
37° F
Dewpoint
-05° C
23° F
Humidity
56%
1hr Rain Fall
00.00 in.
24hr Rain Fall
00.00 in.
Sky Condition
Clear
VFR

METAR KI69 290923Z AUTO 20005KT 10SM CLR 03/M05 A3005 RMK AO1

*Background is not an actual portrayal of the airport.